createdAt,value
2022-08-17T00:00:42.789Z,14.98
2022-08-17T00:03:13.654Z,14.70
2022-08-17T00:05:48.587Z,14.98
2022-08-17T00:08:23.586Z,15.35
2022-08-17T00:13:30.896Z,15.48
2022-08-17T00:16:03.288Z,15.55
2022-08-17T00:19:01.979Z,16.27
2022-08-17T00:21:25.274Z,15.55
2022-08-17T00:23:54.598Z,15.88
2022-08-17T00:26:34.492Z,16.33
2022-08-17T00:29:19.416Z,17.15
2022-08-17T00:31:48.901Z,16.50
2022-08-17T00:34:18.874Z,16.52
2022-08-17T00:36:46.754Z,17.23
2022-08-17T00:39:14.581Z,17.42
2022-08-17T00:41:42.858Z,17.67
2022-08-17T00:44:12.140Z,17.92
2022-08-17T00:46:45.369Z,18.50
2022-08-17T00:49:15.899Z,18.08
2022-08-17T00:51:53.821Z,18.40
2022-08-17T00:54:28.559Z,18.60
2022-08-17T00:57:04.503Z,18.63
2022-08-17T00:59:44.261Z,19.38
2022-08-17T01:02:15.584Z,19.58
2022-08-17T01:04:46.179Z,19.58
2022-08-17T01:07:16.566Z,20.75
2022-08-17T01:09:44.566Z,20.25
2022-08-17T01:12:13.027Z,19.75
2022-08-17T01:14:41.551Z,20.13
2022-08-17T01:17:11.040Z,19.50
2022-08-17T01:19:42.602Z,21.60
2022-08-17T01:22:22.226Z,21.33
2022-08-17T01:24:56.389Z,20.63
2022-08-17T01:27:24.414Z,21.00
2022-08-17T01:30:00.360Z,21.13
2022-08-17T01:32:30.428Z,20.88
2022-08-17T01:35:00.697Z,21.15
2022-08-17T01:37:35.456Z,21.45
2022-08-17T01:40:09.366Z,21.30
2022-08-17T01:42:44.679Z,22.73
2022-08-17T01:45:18.340Z,21.63
2022-08-17T01:47:46.413Z,21.77
2022-08-17T01:50:18.834Z,22.70
2022-08-17T01:52:53.610Z,21.95
2022-08-17T01:55:30.938Z,21.92
2022-08-17T01:57:59.002Z,22.88
2022-08-17T02:00:28.147Z,24.05
2022-08-17T02:03:16.656Z,23.77
2022-08-17T02:05:45.197Z,23.77
2022-08-17T02:08:20.399Z,24.60
2022-08-17T02:10:50.087Z,24.08
2022-08-17T02:13:20.016Z,24.60
2022-08-17T02:15:47.966Z,23.80
2022-08-17T02:18:16.309Z,24.63
2022-08-17T02:20:44.425Z,24.23
2022-08-17T02:23:14.764Z,24.23
2022-08-17T02:25:48.500Z,25.90
2022-08-17T02:28:18.897Z,25.92
2022-08-17T02:31:01.517Z,25.73
2022-08-17T02:33:43.275Z,26.38
2022-08-17T02:36:13.395Z,27.45
2022-08-17T02:38:43.544Z,27.20
2022-08-17T02:41:13.753Z,27.63
2022-08-17T02:43:41.833Z,27.73
2022-08-17T02:46:11.045Z,26.55
2022-08-17T02:48:39.917Z,26.73
2022-08-17T02:51:08.255Z,25.55
2022-08-17T02:53:36.481Z,25.83
2022-08-17T02:56:06.461Z,27.80
2022-08-17T02:58:35.844Z,27.75
2022-08-17T03:01:05.966Z,28.45
2022-08-17T03:03:35.145Z,28.33
2022-08-17T03:06:05.482Z,26.67
2022-08-17T03:08:34.093Z,27.52
2022-08-17T03:11:02.045Z,28.30
2022-08-17T03:13:31.891Z,27.15
2022-08-17T03:15:59.768Z,26.63
2022-08-17T03:18:28.059Z,28.48
2022-08-17T03:21:00.451Z,27.92
2022-08-17T03:23:29.592Z,27.73
2022-08-17T03:26:00.275Z,28.60
2022-08-17T03:28:28.762Z,27.95
2022-08-17T03:30:58.420Z,27.00
2022-08-17T03:33:26.238Z,27.73
2022-08-17T03:35:54.568Z,28.00
2022-08-17T03:38:23.256Z,27.90
2022-08-17T03:40:57.472Z,28.20
2022-08-17T03:43:32.169Z,28.38
2022-08-17T03:46:26.982Z,28.02
2022-08-17T03:49:21.676Z,28.15
2022-08-17T03:52:08.467Z,28.83
2022-08-17T03:54:55.240Z,29.40
2022-08-17T03:57:23.292Z,29.08
2022-08-17T03:59:52.776Z,29.23
2022-08-17T04:02:28.455Z,28.98
2022-08-17T04:04:56.881Z,27.97
2022-08-17T04:07:29.187Z,27.05
2022-08-17T04:09:58.082Z,26.20
2022-08-17T04:12:30.821Z,26.55
2022-08-17T04:14:59.600Z,24.63
2022-08-17T04:17:30.840Z,24.67
2022-08-17T04:19:58.648Z,23.20
2022-08-17T04:22:30.310Z,23.75
2022-08-17T04:25:09.681Z,23.10
2022-08-17T04:27:38.840Z,22.83
2022-08-17T04:30:08.825Z,22.73
2022-08-17T04:33:05.526Z,24.13
2022-08-17T04:35:38.651Z,24.77
2022-08-17T04:38:09.460Z,23.95
2022-08-17T04:40:56.277Z,24.23
2022-08-17T04:43:29.399Z,23.42
2022-08-17T04:46:00.683Z,23.20
2022-08-17T04:48:36.338Z,22.52
2022-08-17T04:51:10.363Z,22.38
2022-08-17T04:53:40.459Z,22.65
2022-08-17T04:56:11.725Z,23.13
2022-08-17T04:58:48.027Z,21.95
2022-08-17T05:01:23.599Z,21.58
2022-08-17T05:03:56.477Z,22.23
2022-08-17T05:06:25.349Z,22.13
2022-08-17T05:08:55.112Z,22.80
2022-08-17T05:11:26.427Z,21.80
2022-08-17T05:13:56.689Z,21.33
2022-08-17T05:16:28.738Z,20.95
2022-08-17T05:18:59.190Z,21.70
2022-08-17T05:21:27.963Z,19.98
2022-08-17T05:23:58.640Z,19.75
2022-08-17T05:26:29.297Z,20.15
2022-08-17T05:29:00.610Z,19.90
2022-08-17T05:31:32.085Z,21.33
2022-08-17T05:34:01.415Z,21.20
2022-08-17T05:36:42.368Z,20.67
2022-08-17T05:39:16.892Z,19.98
2022-08-17T05:41:47.666Z,20.23
2022-08-17T05:44:17.231Z,19.63
2022-08-17T05:46:51.659Z,19.20
2022-08-17T05:49:27.660Z,18.15
2022-08-17T05:52:24.092Z,17.65
2022-08-17T05:55:10.455Z,17.92
2022-08-17T05:57:53.592Z,16.92
2022-08-17T06:00:31.170Z,16.65
2022-08-17T06:03:25.830Z,16.33
2022-08-17T06:06:25.380Z,17.30
2022-08-17T06:09:34.212Z,16.65
2022-08-17T06:12:23.638Z,17.50
2022-08-17T06:15:12.722Z,17.58
2022-08-17T06:18:01.975Z,16.88
2022-08-17T06:20:41.215Z,17.02
2022-08-17T06:23:18.228Z,16.77
2022-08-17T06:25:52.264Z,16.33
2022-08-17T06:28:29.230Z,16.87
2022-08-17T06:31:12.896Z,16.63
2022-08-17T06:33:42.651Z,16.77
2022-08-17T06:36:31.991Z,15.98
2022-08-17T06:39:23.596Z,16.20
2022-08-17T06:42:05.475Z,16.23
2022-08-17T06:44:47.576Z,15.80
2022-08-17T06:47:28.445Z,15.50
2022-08-17T06:50:15.339Z,14.98
2022-08-17T06:52:56.109Z,15.60
2022-08-17T06:55:38.315Z,14.90
2022-08-17T06:58:16.095Z,14.80
2022-08-17T07:00:47.782Z,14.57
2022-08-17T07:03:39.645Z,16.05
2022-08-17T07:06:14.597Z,15.02
2022-08-17T07:11:30.675Z,15.18
2022-08-17T07:14:17.127Z,14.77
2022-08-17T07:16:50.633Z,15.05
2022-08-17T07:19:22.668Z,19.98
2022-08-17T07:22:01.157Z,13.90
2022-08-17T07:24:39.332Z,13.57
2022-08-17T07:27:15.089Z,12.52
2022-08-17T07:29:51.239Z,14.05
2022-08-17T07:32:26.305Z,12.38
2022-08-17T07:35:22.963Z,11.98
2022-08-17T07:38:24.820Z,11.82
2022-08-17T07:41:07.172Z,11.80
2022-08-17T07:43:47.830Z,11.52
2022-08-17T07:46:39.007Z,10.68
2022-08-17T07:49:24.291Z,9.63
2022-08-17T07:52:47.522Z,9.40
2022-08-17T07:54:56.125Z,9.98
2022-08-17T07:57:35.177Z,9.05
2022-08-17T08:00:19.728Z,8.77
2022-08-17T08:03:21.800Z,8.52
2022-08-17T08:06:02.034Z,8.60
2022-08-17T08:08:41.381Z,8.20
2022-08-17T08:11:15.107Z,9.18
2022-08-17T08:13:45.535Z,9.30
2022-08-17T08:16:29.611Z,9.00
2022-08-17T08:19:02.415Z,9.27
2022-08-17T08:21:56.403Z,8.52
2022-08-17T08:24:59.114Z,8.32
2022-08-17T08:27:44.393Z,8.35
2022-08-17T08:30:15.929Z,8.10
2022-08-17T08:33:10.604Z,8.02
2022-08-17T08:35:51.388Z,7.50
2022-08-17T08:38:37.126Z,7.03
2022-08-17T08:41:26.326Z,7.30
2022-08-17T08:44:08.363Z,7.75
2022-08-17T08:46:46.944Z,6.65
2022-08-17T08:52:53.990Z,6.68
2022-08-17T08:55:35.458Z,6.47
2022-08-17T08:58:36.246Z,6.20
2022-08-17T09:01:15.669Z,5.95
2022-08-17T09:04:24.821Z,6.53
2022-08-17T09:07:12.910Z,5.93
2022-08-17T09:09:59.394Z,5.88
2022-08-17T09:12:39.287Z,6.07
2022-08-17T09:15:17.598Z,6.45
2022-08-17T09:18:21.265Z,5.55
2022-08-17T09:20:53.190Z,5.30
2022-08-17T09:23:34.180Z,5.50
2022-08-17T09:26:11.854Z,4.75
2022-08-17T09:28:49.285Z,4.97
2022-08-17T09:31:24.021Z,4.78
2022-08-17T09:33:54.391Z,4.90
2022-08-17T09:36:29.301Z,4.93
2022-08-17T09:39:06.324Z,5.35
2022-08-17T09:41:49.238Z,4.25
2022-08-17T09:44:35.840Z,4.20
2022-08-17T09:47:15.184Z,4.10
2022-08-17T09:49:48.387Z,3.80
2022-08-17T09:52:21.902Z,3.95
2022-08-17T09:54:57.569Z,4.32
2022-08-17T09:57:50.412Z,4.00
2022-08-17T10:00:27.462Z,4.18
2022-08-17T10:03:26.505Z,4.03
2022-08-17T10:06:08.219Z,4.35
2022-08-17T10:08:46.678Z,4.45
2022-08-17T10:11:48.268Z,4.30
2022-08-17T10:14:37.723Z,4.13
2022-08-17T10:17:24.583Z,4.40
2022-08-17T10:20:06.569Z,4.40
2022-08-17T10:23:05.469Z,4.70
2022-08-17T10:26:00.685Z,4.60
2022-08-17T10:28:39.429Z,4.63
2022-08-17T10:34:52.478Z,3.97
2022-08-17T10:37:48.932Z,4.30
2022-08-17T10:40:34.234Z,4.22
2022-08-17T10:43:26.823Z,4.15
2022-08-17T10:46:30.562Z,4.15
2022-08-17T10:49:29.335Z,4.15
2022-08-17T10:52:00.700Z,4.15
2022-08-17T10:55:07.883Z,4.32
2022-08-17T10:57:41.764Z,4.50
2022-08-17T11:00:52.592Z,4.40
2022-08-17T11:03:26.129Z,4.40
2022-08-17T11:06:13.990Z,5.10
2022-08-17T11:09:14.593Z,4.40
2022-08-17T11:12:02.762Z,4.55
2022-08-17T11:14:54.764Z,4.45
2022-08-17T11:17:53.445Z,4.75
2022-08-17T11:21:03.502Z,4.70
2022-08-17T11:24:01.400Z,4.55
2022-08-17T11:26:33.993Z,4.70
2022-08-17T11:29:09.158Z,4.10
2022-08-17T11:31:43.486Z,4.50
2022-08-17T11:34:21.185Z,4.38
2022-08-17T11:37:15.732Z,4.30
2022-08-17T11:40:13.476Z,4.20
2022-08-17T11:43:25.569Z,4.40
2022-08-17T11:46:16.842Z,4.05
2022-08-17T11:49:20.751Z,4.43
2022-08-17T11:52:37.307Z,4.80
2022-08-17T11:55:33.861Z,4.85
2022-08-17T11:58:26.501Z,4.10
2022-08-17T12:00:58.617Z,4.20
2022-08-17T12:03:53.821Z,3.78
2022-08-17T12:06:45.415Z,4.60
2022-08-17T12:09:24.428Z,4.65
2022-08-17T12:12:13.224Z,4.32
2022-08-17T12:15:09.741Z,4.10
2022-08-17T12:17:43.051Z,4.43
2022-08-17T12:20:22.013Z,4.28
2022-08-17T12:23:03.969Z,4.32
2022-08-17T12:25:40.766Z,4.80
2022-08-17T12:28:26.707Z,4.50
2022-08-17T12:31:01.490Z,4.70
2022-08-17T12:33:29.862Z,4.50
2022-08-17T12:36:05.776Z,5.00
2022-08-17T12:38:37.619Z,4.90
2022-08-17T12:41:28.525Z,5.30
2022-08-17T12:44:04.423Z,4.50
2022-08-17T12:46:51.457Z,5.10
2022-08-17T12:49:27.373Z,4.60
2022-08-17T12:52:17.617Z,4.38
2022-08-17T12:54:55.664Z,4.82
2022-08-17T12:57:33.379Z,4.90
2022-08-17T13:00:10.900Z,5.00
2022-08-17T13:02:46.351Z,4.93
2022-08-17T13:05:35.931Z,4.65
2022-08-17T13:08:16.174Z,5.03
2022-08-17T13:10:56.451Z,4.20
2022-08-17T13:13:31.611Z,4.60
2022-08-17T13:16:03.416Z,4.35
2022-08-17T13:18:51.727Z,4.20
2022-08-17T13:21:30.536Z,3.97
2022-08-17T13:24:02.138Z,4.38
2022-08-17T13:26:37.546Z,4.50
2022-08-17T13:29:20.758Z,4.15
2022-08-17T13:31:56.385Z,4.05
2022-08-17T13:35:11.814Z,4.25
2022-08-17T13:37:34.519Z,3.90
2022-08-17T13:40:32.146Z,3.97
2022-08-17T13:43:00.199Z,4.57
2022-08-17T13:45:43.395Z,3.90
2022-08-17T13:48:26.718Z,4.10
2022-08-17T13:51:20.249Z,4.20
2022-08-17T13:54:00.532Z,3.60
2022-08-17T13:56:39.534Z,3.55
2022-08-17T13:59:13.626Z,3.70
2022-08-17T14:01:52.801Z,3.40
2022-08-17T14:04:26.414Z,3.40
2022-08-17T14:06:59.544Z,3.17
2022-08-17T14:09:37.042Z,3.40
2022-08-17T14:12:19.682Z,2.88
2022-08-17T14:14:49.481Z,2.70
2022-08-17T14:17:19.431Z,2.85
2022-08-17T14:19:48.071Z,2.67
2022-08-17T14:22:23.657Z,3.30
2022-08-17T14:24:51.909Z,2.72
2022-08-17T14:27:21.523Z,2.80
2022-08-17T14:29:49.372Z,3.10
2022-08-17T14:32:26.886Z,2.70
2022-08-17T14:34:57.545Z,3.00
2022-08-17T14:37:27.996Z,2.83
2022-08-17T14:39:59.767Z,3.10
2022-08-17T14:42:33.007Z,2.63
2022-08-17T14:45:06.147Z,2.80
2022-08-17T14:47:55.266Z,2.50
2022-08-17T14:50:23.758Z,2.92
2022-08-17T14:52:52.262Z,3.00
2022-08-17T14:55:21.499Z,3.10
2022-08-17T14:57:49.527Z,3.00
2022-08-17T15:00:18.060Z,3.78
2022-08-17T15:02:53.592Z,3.10
2022-08-17T15:05:27.353Z,3.30
2022-08-17T15:07:56.717Z,3.90
2022-08-17T15:10:25.859Z,3.22
2022-08-17T15:12:56.090Z,3.22
2022-08-17T15:15:24.415Z,4.55
2022-08-17T15:17:52.556Z,7.07
2022-08-17T15:20:27.816Z,8.65
2022-08-17T15:22:58.647Z,14.18
2022-08-17T15:25:30.242Z,14.68
2022-08-17T15:28:00.759Z,14.07
2022-08-17T15:30:30.658Z,14.18
2022-08-17T15:33:00.759Z,16.65
2022-08-17T15:35:33.854Z,17.40
2022-08-17T15:38:11.264Z,18.27
2022-08-17T15:40:43.091Z,20.30
2022-08-17T15:43:14.737Z,21.08
2022-08-17T15:45:42.960Z,21.17
2022-08-17T15:48:11.302Z,21.48
2022-08-17T15:50:41.174Z,22.50
2022-08-17T15:53:10.403Z,24.00
2022-08-17T15:55:43.022Z,23.88
2022-08-17T15:58:10.912Z,24.65
2022-08-17T16:00:52.966Z,21.80
2022-08-17T16:03:59.273Z,24.88
2022-08-17T16:06:13.651Z,22.70
2022-08-17T16:08:44.512Z,22.52
2022-08-17T16:11:15.064Z,23.42
2022-08-17T16:13:54.538Z,24.58
2022-08-17T16:16:23.709Z,23.33
2022-08-17T16:18:54.528Z,24.13
2022-08-17T16:21:42.728Z,22.77
2022-08-17T16:24:13.655Z,22.45
2022-08-17T16:26:43.236Z,24.52
2022-08-17T16:29:11.582Z,24.20
2022-08-17T16:31:40.545Z,24.85
2022-08-17T16:34:18.025Z,25.92
2022-08-17T16:36:55.221Z,23.65
2022-08-17T16:39:27.287Z,24.35
2022-08-17T16:41:56.525Z,24.20
2022-08-17T16:44:27.367Z,23.45
2022-08-17T16:46:55.878Z,24.98
2022-08-17T16:49:36.918Z,26.17
2022-08-17T16:52:10.379Z,24.48
2022-08-17T16:54:43.445Z,25.05
2022-08-17T16:57:14.282Z,25.30
2022-08-17T16:59:47.812Z,25.77
2022-08-17T17:02:24.849Z,24.08
2022-08-17T17:05:03.225Z,24.70
2022-08-17T17:07:53.438Z,25.42
2022-08-17T17:10:28.340Z,25.67
2022-08-17T17:13:02.745Z,26.85
2022-08-17T17:15:46.266Z,26.00
2022-08-17T17:18:16.869Z,26.88
2022-08-17T17:20:55.294Z,25.15
2022-08-17T17:23:40.571Z,26.33
2022-08-17T17:26:48.298Z,25.33
2022-08-17T17:29:46.491Z,24.80
2022-08-17T17:32:25.458Z,27.27
2022-08-17T17:35:11.736Z,26.50
2022-08-17T17:37:44.762Z,25.92
2022-08-17T17:40:22.918Z,25.08
2022-08-17T17:42:55.309Z,25.75
2022-08-17T17:45:31.200Z,25.88
2022-08-17T17:47:59.170Z,25.52
2022-08-17T17:50:38.358Z,26.58
2022-08-17T17:53:18.544Z,24.63
2022-08-17T17:56:06.957Z,27.30
2022-08-17T17:59:01.499Z,26.00
2022-08-17T18:01:48.743Z,25.63
2022-08-17T18:04:26.612Z,25.25
2022-08-17T18:07:19.393Z,27.15
2022-08-17T18:10:29.506Z,25.63
2022-08-17T18:13:16.463Z,25.83
2022-08-17T18:15:54.056Z,24.95
2022-08-17T18:18:37.638Z,25.73
2022-08-17T18:21:19.587Z,24.33
2022-08-17T18:23:57.796Z,23.52
2022-08-17T18:26:45.082Z,24.58
2022-08-17T18:29:32.333Z,24.63
2022-08-17T18:32:19.341Z,23.98
2022-08-17T18:34:51.600Z,24.48
2022-08-17T18:37:49.018Z,23.83
2022-08-17T18:40:32.647Z,24.75
2022-08-17T18:43:09.159Z,23.23
2022-08-17T18:45:45.801Z,23.27
2022-08-17T18:48:30.191Z,24.13
2022-08-17T18:51:21.158Z,23.45
2022-08-17T18:54:14.123Z,22.98
2022-08-17T18:56:48.176Z,22.38
2022-08-17T18:59:29.008Z,22.52
2022-08-17T19:05:24.733Z,23.48
2022-08-17T19:07:53.247Z,23.30
2022-08-17T19:10:28.700Z,24.20
2022-08-17T19:13:12.765Z,23.57
2022-08-17T19:16:13.955Z,24.25
2022-08-17T19:18:46.184Z,24.50
2022-08-17T19:21:31.310Z,24.48
2022-08-17T19:24:12.050Z,24.65
2022-08-17T19:26:54.532Z,23.83
2022-08-17T19:29:32.270Z,25.08
2022-08-17T19:32:02.525Z,22.85
2022-08-17T19:34:34.977Z,23.98
2022-08-17T19:37:27.178Z,24.65
2022-08-17T19:40:24.387Z,24.52
2022-08-17T19:45:58.171Z,24.38
2022-08-17T19:48:51.374Z,25.30
2022-08-17T19:51:33.919Z,24.58
2022-08-17T19:54:15.034Z,25.42
2022-08-17T19:56:56.447Z,24.95
2022-08-17T19:59:48.875Z,25.35
2022-08-17T20:02:33.555Z,25.88
2022-08-17T20:05:13.352Z,26.02
2022-08-17T20:07:54.082Z,25.50
2022-08-17T20:10:36.436Z,26.20
2022-08-17T20:13:14.900Z,25.70
2022-08-17T20:15:47.067Z,26.33
2022-08-17T20:18:24.747Z,26.00
2022-08-17T20:21:00.504Z,25.73
2022-08-17T20:23:50.518Z,26.23
2022-08-17T20:26:26.419Z,27.60
2022-08-17T20:29:49.626Z,27.00
2022-08-17T20:32:28.584Z,27.73
2022-08-17T20:35:19.680Z,28.30
2022-08-17T20:37:57.354Z,28.15
2022-08-17T20:40:35.150Z,27.60
2022-08-17T20:43:51.002Z,28.63
2022-08-17T20:46:41.392Z,27.77
2022-08-17T20:49:30.585Z,27.92
2022-08-17T20:52:07.572Z,28.42
2022-08-17T20:54:48.238Z,29.05
2022-08-17T20:57:48.756Z,28.60
2022-08-17T21:00:50.063Z,26.58
2022-08-17T21:03:49.192Z,28.00
2022-08-17T21:06:25.617Z,28.35
2022-08-17T21:09:18.633Z,27.85
2022-08-17T21:12:05.513Z,30.05
2022-08-17T21:14:57.983Z,29.42
2022-08-17T21:17:42.137Z,29.95
2022-08-17T21:20:32.328Z,29.80
2022-08-17T21:23:37.259Z,30.48
2022-08-17T21:26:31.179Z,31.05
2022-08-17T21:29:31.547Z,31.77
2022-08-17T21:32:23.709Z,32.38
2022-08-17T21:35:28.839Z,31.65
2022-08-17T21:38:04.862Z,31.27
2022-08-17T21:40:34.350Z,32.42
2022-08-17T21:43:24.028Z,35.20
2022-08-17T21:46:01.964Z,34.95
2022-08-17T21:48:41.992Z,36.10
2022-08-17T21:51:22.733Z,36.22
2022-08-17T21:53:56.912Z,37.17
2022-08-17T21:56:30.845Z,38.97
2022-08-17T21:59:05.338Z,38.45
2022-08-17T22:01:38.626Z,39.03
2022-08-17T22:04:20.685Z,38.83
2022-08-17T22:06:57.111Z,38.03
2022-08-17T22:09:31.489Z,36.47
2022-08-17T22:12:07.673Z,35.42
2022-08-17T22:14:53.190Z,39.42
2022-08-17T22:17:26.143Z,38.88
2022-08-17T22:19:59.646Z,39.83
2022-08-17T22:22:57.099Z,40.25
2022-08-17T22:25:29.481Z,40.58
2022-08-17T22:28:01.950Z,39.28
2022-08-17T22:30:37.147Z,41.53
2022-08-17T22:36:20.236Z,42.33
2022-08-17T22:38:52.353Z,43.50
2022-08-17T22:41:52.562Z,43.83
2022-08-17T22:44:27.411Z,43.63
2022-08-17T22:47:01.709Z,44.00
2022-08-17T22:49:38.461Z,45.55
2022-08-17T22:52:32.702Z,43.30
2022-08-17T22:55:26.307Z,42.92
2022-08-17T22:58:14.234Z,42.92
2022-08-17T23:00:46.993Z,45.88
2022-08-17T23:03:19.997Z,48.53
2022-08-17T23:06:03.887Z,50.53
2022-08-17T23:08:35.527Z,47.80
2022-08-17T23:11:06.242Z,49.70
2022-08-17T23:13:37.194Z,51.88
2022-08-17T23:16:05.054Z,48.95
2022-08-17T23:18:32.876Z,51.40
2022-08-17T23:21:03.749Z,54.05
2022-08-17T23:23:31.602Z,53.33
2022-08-17T23:25:59.469Z,51.05
2022-08-17T23:28:28.438Z,49.05
2022-08-17T23:30:58.216Z,45.90
2022-08-17T23:33:30.900Z,44.97
2022-08-17T23:35:58.795Z,47.83
2022-08-17T23:38:27.680Z,50.42
2022-08-17T23:40:59.975Z,51.35
2022-08-17T23:43:31.470Z,52.58
2022-08-17T23:46:03.603Z,54.10
2022-08-17T23:48:36.271Z,54.35
2022-08-17T23:51:12.282Z,55.85
2022-08-17T23:53:47.565Z,57.58
2022-08-17T23:56:17.989Z,54.50
2022-08-17T23:58:45.793Z,57.45
